createdAt,value
2022-11-29T00:00:16.649Z,15.03
2022-11-29T00:03:09.702Z,15.33
2022-11-29T00:05:43.056Z,15.07
2022-11-29T00:08:16.131Z,14.43
2022-11-29T00:10:49.220Z,13.63
2022-11-29T00:13:22.643Z,14.10
2022-11-29T00:15:55.917Z,14.67
2022-11-29T00:18:28.880Z,14.33
2022-11-29T00:21:02.696Z,14.37
2022-11-29T00:23:35.520Z,15.10
2022-11-29T00:26:12.464Z,14.27
2022-11-29T00:28:45.990Z,14.00
2022-11-29T00:31:22.379Z,14.00
2022-11-29T00:33:55.655Z,13.70
2022-11-29T00:36:29.659Z,14.67
2022-11-29T00:39:02.686Z,13.63
2022-11-29T00:41:36.775Z,14.20
2022-11-29T00:44:15.334Z,13.73
2022-11-29T00:46:51.834Z,13.95
2022-11-29T00:49:24.773Z,13.47
2022-11-29T00:51:57.759Z,13.73
2022-11-29T00:54:31.124Z,14.30
2022-11-29T00:57:03.901Z,14.60
2022-11-29T00:59:36.861Z,13.95
2022-11-29T01:02:09.954Z,13.97
2022-11-29T01:04:43.359Z,13.97
2022-11-29T01:07:16.826Z,13.60
2022-11-29T01:09:50.451Z,16.00
2022-11-29T01:12:23.443Z,13.73
2022-11-29T01:14:56.348Z,13.73
2022-11-29T01:17:29.237Z,14.77
2022-11-29T01:20:02.187Z,13.57
2022-11-29T01:22:35.326Z,13.70
2022-11-29T01:25:12.105Z,15.60
2022-11-29T01:27:45.386Z,14.57
2022-11-29T01:30:18.489Z,14.33
2022-11-29T01:32:52.311Z,14.87
2022-11-29T01:35:25.446Z,15.47
2022-11-29T01:37:58.653Z,14.17
2022-11-29T01:40:31.709Z,15.27
2022-11-29T01:43:07.422Z,14.77
2022-11-29T01:45:41.273Z,14.57
2022-11-29T01:48:15.755Z,15.50
2022-11-29T01:50:48.712Z,15.17
2022-11-29T01:53:22.679Z,15.03
2022-11-29T01:55:59.320Z,16.43
2022-11-29T01:58:32.911Z,15.87
2022-11-29T02:01:05.898Z,16.33
2022-11-29T02:03:38.998Z,15.13
2022-11-29T02:06:12.021Z,14.97
2022-11-29T02:08:46.347Z,16.13
2022-11-29T02:11:44.079Z,15.30
2022-11-29T02:14:37.844Z,15.33
2022-11-29T02:17:20.277Z,17.37
2022-11-29T02:20:27.162Z,16.77
2022-11-29T02:23:12.412Z,16.47
2022-11-29T02:26:00.570Z,15.67
2022-11-29T02:28:59.860Z,16.20
2022-11-29T02:32:02.832Z,17.63
2022-11-29T02:37:39.946Z,15.60
2022-11-29T02:40:30.222Z,17.07
2022-11-29T02:43:38.129Z,16.23
2022-11-29T02:46:26.376Z,17.27
2022-11-29T02:49:08.665Z,17.00
2022-11-29T02:51:48.523Z,17.20
2022-11-29T02:54:27.934Z,16.53
2022-11-29T02:57:07.440Z,16.67
2022-11-29T02:59:50.305Z,16.67
2022-11-29T03:05:11.678Z,15.87
2022-11-29T03:07:57.741Z,16.37
2022-11-29T03:10:44.838Z,16.77
2022-11-29T03:13:24.934Z,17.13
2022-11-29T03:16:07.558Z,16.67
2022-11-29T03:21:34.100Z,16.57
2022-11-29T03:24:15.524Z,17.90
2022-11-29T03:26:53.779Z,17.00
2022-11-29T03:29:34.409Z,16.77
2022-11-29T03:32:17.656Z,17.87
2022-11-29T03:35:00.916Z,17.47
2022-11-29T03:37:47.223Z,19.47
2022-11-29T03:40:24.260Z,19.30
2022-11-29T03:43:02.207Z,18.80
2022-11-29T03:45:41.349Z,18.93
2022-11-29T03:48:20.303Z,18.30
2022-11-29T03:51:01.357Z,20.37
2022-11-29T03:53:38.748Z,18.00
2022-11-29T03:59:21.015Z,18.57
2022-11-29T04:02:31.498Z,18.17
2022-11-29T04:05:46.680Z,18.57
2022-11-29T04:09:01.004Z,18.53
2022-11-29T04:12:06.349Z,17.83
2022-11-29T04:15:37.947Z,19.53
2022-11-29T04:18:50.557Z,18.90
2022-11-29T04:21:49.821Z,18.35
2022-11-29T04:25:00.089Z,19.33
2022-11-29T04:28:05.402Z,18.70
2022-11-29T04:30:49.506Z,17.90
2022-11-29T04:34:03.225Z,18.00
2022-11-29T04:36:57.693Z,18.17
2022-11-29T04:39:47.484Z,19.23
2022-11-29T04:42:51.054Z,18.90
2022-11-29T04:45:52.244Z,19.60
2022-11-29T04:48:48.727Z,19.70
2022-11-29T04:51:37.425Z,20.03
2022-11-29T04:54:20.939Z,19.03
2022-11-29T04:57:03.550Z,20.67
2022-11-29T05:02:29.822Z,19.17
2022-11-29T05:05:15.898Z,18.03
2022-11-29T05:07:58.534Z,20.23
2022-11-29T05:10:39.080Z,19.13
2022-11-29T05:13:20.858Z,19.30
2022-11-29T05:16:10.248Z,20.47
2022-11-29T05:19:28.471Z,19.57
2022-11-29T05:22:14.144Z,20.53
2022-11-29T05:25:00.237Z,19.17
2022-11-29T05:27:46.124Z,20.03
2022-11-29T05:30:23.491Z,18.37
2022-11-29T05:33:12.165Z,18.90
2022-11-29T05:36:08.225Z,20.33
2022-11-29T05:39:09.127Z,17.53
2022-11-29T05:41:55.625Z,18.83
2022-11-29T05:44:35.667Z,20.30
2022-11-29T05:47:11.532Z,21.13
2022-11-29T05:49:55.680Z,19.37
2022-11-29T05:52:41.361Z,20.67
2022-11-29T05:55:26.643Z,17.83
2022-11-29T05:58:03.881Z,19.33
2022-11-29T06:00:44.786Z,20.20
2022-11-29T06:03:26.893Z,19.47
2022-11-29T06:06:03.514Z,20.20
2022-11-29T06:08:44.733Z,20.53
2022-11-29T06:11:23.453Z,20.23
2022-11-29T06:14:10.273Z,18.80
2022-11-29T06:16:58.505Z,19.70
2022-11-29T06:20:09.391Z,20.90
2022-11-29T06:23:12.880Z,20.57
2022-11-29T06:26:03.897Z,20.20
2022-11-29T06:28:53.867Z,19.87
2022-11-29T06:31:29.893Z,20.73
2022-11-29T06:34:09.304Z,21.97
2022-11-29T06:36:50.029Z,21.53
2022-11-29T06:39:25.815Z,21.13
2022-11-29T06:41:59.680Z,22.67
2022-11-29T06:44:33.517Z,21.23
2022-11-29T06:47:10.715Z,21.93
2022-11-29T06:49:49.823Z,21.27
2022-11-29T06:52:29.796Z,22.53
2022-11-29T06:55:16.075Z,22.37
2022-11-29T06:58:01.316Z,21.23
2022-11-29T07:00:44.096Z,22.70
2022-11-29T07:03:39.750Z,22.93
2022-11-29T07:06:18.055Z,22.00
2022-11-29T07:08:54.409Z,22.73
2022-11-29T07:11:30.132Z,23.80
2022-11-29T07:14:05.296Z,22.30
2022-11-29T07:16:55.893Z,24.23
2022-11-29T07:19:42.505Z,23.00
2022-11-29T07:22:35.354Z,21.93
2022-11-29T07:25:20.833Z,23.00
2022-11-29T07:28:04.059Z,23.63
2022-11-29T07:30:44.597Z,23.30
2022-11-29T07:33:26.161Z,23.57
2022-11-29T07:36:08.345Z,23.37
2022-11-29T07:38:54.919Z,22.67
2022-11-29T07:41:38.983Z,22.13
2022-11-29T07:44:22.713Z,22.90
2022-11-29T07:46:56.262Z,23.67
2022-11-29T07:49:30.442Z,22.90
2022-11-29T07:52:04.018Z,23.27
2022-11-29T07:54:37.599Z,24.87
2022-11-29T07:57:11.062Z,23.93
2022-11-29T07:59:44.793Z,24.07
2022-11-29T08:02:27.459Z,23.60
2022-11-29T08:07:35.215Z,23.63
2022-11-29T08:10:11.582Z,22.93
2022-11-29T08:12:48.499Z,21.80
2022-11-29T08:15:23.219Z,24.00
2022-11-29T08:17:56.597Z,23.00
2022-11-29T08:20:29.971Z,22.67
2022-11-29T08:23:03.782Z,23.23
2022-11-29T08:25:37.875Z,23.53
2022-11-29T08:28:11.389Z,23.87
2022-11-29T08:30:44.986Z,23.77
2022-11-29T08:33:18.585Z,25.50
2022-11-29T08:35:54.642Z,24.90
2022-11-29T08:38:27.512Z,24.90
2022-11-29T08:41:03.947Z,25.60
2022-11-29T08:43:37.696Z,24.67
2022-11-29T08:46:17.983Z,24.97
2022-11-29T08:48:52.395Z,23.63
2022-11-29T08:51:25.716Z,23.93
2022-11-29T08:53:59.057Z,24.63
2022-11-29T08:57:16.370Z,25.67
2022-11-29T08:59:25.162Z,24.23
2022-11-29T09:01:58.771Z,25.47
2022-11-29T09:04:32.294Z,26.50
2022-11-29T09:07:05.769Z,25.87
2022-11-29T09:09:38.954Z,23.87
2022-11-29T09:12:12.282Z,24.73
2022-11-29T09:14:45.719Z,24.33
2022-11-29T09:17:19.474Z,24.00
2022-11-29T09:19:52.678Z,23.50
2022-11-29T09:22:25.849Z,22.13
2022-11-29T09:24:59.102Z,22.33
2022-11-29T09:27:32.637Z,22.20
2022-11-29T09:30:06.783Z,22.23
2022-11-29T09:32:40.250Z,21.57
2022-11-29T09:35:13.858Z,20.63
2022-11-29T09:37:47.246Z,22.60
2022-11-29T09:40:24.837Z,19.73
2022-11-29T09:43:04.378Z,18.67
2022-11-29T09:45:43.644Z,19.90
2022-11-29T09:48:47.920Z,19.77
2022-11-29T09:51:29.717Z,19.27
2022-11-29T09:54:22.506Z,17.90
2022-11-29T09:59:34.086Z,18.60
2022-11-29T10:02:21.082Z,18.30
2022-11-29T10:05:01.259Z,16.70
2022-11-29T10:07:40.859Z,14.97
2022-11-29T10:10:20.034Z,14.30
2022-11-29T10:12:56.647Z,11.13
2022-11-29T10:15:33.106Z,10.57
2022-11-29T10:18:14.006Z,10.30
2022-11-29T10:20:50.959Z,9.93
2022-11-29T10:23:31.467Z,8.83
2022-11-29T10:26:08.296Z,9.03
2022-11-29T10:28:47.766Z,9.07
2022-11-29T10:31:25.678Z,9.00
2022-11-29T10:34:02.390Z,9.27
2022-11-29T10:36:42.042Z,8.77
2022-11-29T10:39:22.836Z,8.13
2022-11-29T10:42:01.151Z,8.00
2022-11-29T10:44:35.316Z,7.63
2022-11-29T10:47:11.069Z,7.43
2022-11-29T10:49:44.816Z,7.70
2022-11-29T10:52:22.301Z,7.67
2022-11-29T10:55:00.226Z,8.63
2022-11-29T10:57:35.035Z,8.50
2022-11-29T11:00:16.111Z,7.93
2022-11-29T11:02:49.806Z,8.27
2022-11-29T11:05:28.597Z,8.77
2022-11-29T11:08:05.521Z,9.37
2022-11-29T11:10:39.695Z,7.60
2022-11-29T11:13:25.255Z,7.37
2022-11-29T11:16:10.891Z,8.27
2022-11-29T11:18:44.523Z,7.83
2022-11-29T11:21:20.368Z,7.53
2022-11-29T11:23:59.315Z,7.20
2022-11-29T11:26:46.231Z,6.63
2022-11-29T11:29:22.889Z,6.93
2022-11-29T11:31:58.248Z,7.67
2022-11-29T11:34:35.300Z,7.47
2022-11-29T11:37:26.621Z,6.77
2022-11-29T11:40:02.374Z,7.47
2022-11-29T11:42:40.674Z,6.30
2022-11-29T11:45:32.740Z,7.30
2022-11-29T11:48:14.045Z,6.47
2022-11-29T11:50:53.208Z,7.00
2022-11-29T11:53:28.966Z,6.50
2022-11-29T11:56:05.622Z,6.00
2022-11-29T11:58:47.001Z,5.80
2022-11-29T12:01:28.857Z,5.90
2022-11-29T12:04:07.802Z,4.95
2022-11-29T12:06:47.876Z,6.37
2022-11-29T12:09:38.083Z,5.53
2022-11-29T12:12:25.286Z,5.87
2022-11-29T12:15:02.687Z,6.10
2022-11-29T12:17:39.960Z,6.10
2022-11-29T12:20:23.837Z,5.37
2022-11-29T12:23:21.019Z,6.20
2022-11-29T12:25:58.903Z,5.13
2022-11-29T12:28:35.099Z,5.37
2022-11-29T12:31:20.305Z,5.40
2022-11-29T12:34:05.522Z,5.23
2022-11-29T12:36:48.746Z,5.93
2022-11-29T12:39:45.851Z,5.93
2022-11-29T12:42:28.303Z,5.07
2022-11-29T12:45:06.613Z,5.77
2022-11-29T12:47:52.137Z,5.90
2022-11-29T12:50:40.842Z,6.07
2022-11-29T12:53:30.212Z,5.77
2022-11-29T12:56:16.314Z,5.43
2022-11-29T12:58:58.815Z,6.53
2022-11-29T13:01:42.356Z,6.70
2022-11-29T13:04:24.136Z,5.70
2022-11-29T13:07:04.446Z,5.87
2022-11-29T13:09:58.574Z,6.40
2022-11-29T13:12:40.986Z,5.40
2022-11-29T13:15:20.043Z,5.80
2022-11-29T13:17:59.238Z,4.87
2022-11-29T13:20:40.199Z,5.50
2022-11-29T13:23:38.997Z,5.07
2022-11-29T13:26:19.630Z,5.50
2022-11-29T13:28:53.979Z,5.20
2022-11-29T13:31:28.152Z,5.73
2022-11-29T13:34:08.551Z,5.97
2022-11-29T13:36:55.873Z,5.57
2022-11-29T13:39:43.399Z,6.03
2022-11-29T13:42:24.580Z,5.67
2022-11-29T13:45:04.737Z,6.07
2022-11-29T13:47:51.844Z,6.60
2022-11-29T13:50:42.391Z,6.37
2022-11-29T13:53:20.471Z,5.57
2022-11-29T13:56:01.942Z,6.50
2022-11-29T13:58:41.544Z,6.17
2022-11-29T14:01:16.689Z,6.17
2022-11-29T14:04:02.593Z,7.90
2022-11-29T14:06:40.199Z,6.73
2022-11-29T14:09:35.390Z,6.40
2022-11-29T14:12:27.625Z,7.03
2022-11-29T14:15:05.862Z,6.60
2022-11-29T14:17:51.270Z,7.30
2022-11-29T14:21:00.879Z,8.23
2022-11-29T14:23:46.974Z,6.85
2022-11-29T14:26:33.369Z,6.83
2022-11-29T14:29:42.474Z,6.80
2022-11-29T14:32:26.105Z,6.70
2022-11-29T14:35:05.649Z,7.23
2022-11-29T14:38:04.231Z,6.50
2022-11-29T14:40:47.983Z,6.43
2022-11-29T14:43:30.273Z,7.40
2022-11-29T14:46:29.674Z,7.20
2022-11-29T14:49:05.718Z,6.50
2022-11-29T14:51:39.333Z,6.20
2022-11-29T14:54:19.740Z,6.10
2022-11-29T14:56:53.839Z,6.37
2022-11-29T14:59:52.695Z,6.00
2022-11-29T15:02:33.692Z,6.30
2022-11-29T15:05:18.946Z,5.53
2022-11-29T15:08:02.572Z,5.57
2022-11-29T15:10:41.320Z,5.53
2022-11-29T15:13:20.628Z,6.13
2022-11-29T15:16:15.485Z,6.30
2022-11-29T15:19:14.931Z,5.87
2022-11-29T15:21:56.216Z,5.70
2022-11-29T15:24:30.114Z,6.80
2022-11-29T15:27:05.029Z,6.53
2022-11-29T15:29:38.323Z,6.57
2022-11-29T15:32:18.889Z,6.77
2022-11-29T15:34:54.441Z,6.90
2022-11-29T15:37:44.768Z,7.23
2022-11-29T15:40:20.572Z,7.37
2022-11-29T15:42:58.102Z,7.10
2022-11-29T15:45:36.594Z,6.57
2022-11-29T15:48:24.815Z,6.80
2022-11-29T15:51:06.055Z,7.07
2022-11-29T15:53:42.941Z,6.37
2022-11-29T15:56:22.384Z,6.67
2022-11-29T15:59:01.658Z,7.17
2022-11-29T16:01:36.414Z,7.67
2022-11-29T16:04:19.314Z,7.03
2022-11-29T16:06:53.397Z,7.67
2022-11-29T16:09:35.713Z,6.97
2022-11-29T16:14:56.011Z,7.57
2022-11-29T16:17:32.979Z,7.20
2022-11-29T16:20:26.265Z,7.70
2022-11-29T16:23:13.232Z,6.87
2022-11-29T16:25:59.724Z,7.53
2022-11-29T16:28:36.151Z,7.17
2022-11-29T16:31:12.423Z,7.70
2022-11-29T16:33:50.353Z,7.67
2022-11-29T16:36:26.719Z,7.90
2022-11-29T16:39:06.566Z,6.80
2022-11-29T16:41:40.704Z,7.70
2022-11-29T16:44:51.083Z,7.27
2022-11-29T16:47:27.564Z,7.63
2022-11-29T16:50:24.699Z,7.03
2022-11-29T16:53:19.191Z,7.13
2022-11-29T16:55:53.133Z,7.60
2022-11-29T16:58:26.906Z,6.60
2022-11-29T17:01:02.869Z,7.77
2022-11-29T17:03:36.597Z,6.50
2022-11-29T17:06:12.413Z,7.80
2022-11-29T17:08:46.631Z,7.93
2022-11-29T17:11:19.892Z,7.20
2022-11-29T17:13:54.014Z,7.13
2022-11-29T17:16:27.662Z,7.63
2022-11-29T17:19:08.663Z,7.67
2022-11-29T17:21:42.471Z,7.00
2022-11-29T17:24:18.873Z,7.23
2022-11-29T17:26:54.209Z,7.30
2022-11-29T17:29:27.413Z,7.47
2022-11-29T17:32:00.540Z,6.90
2022-11-29T17:34:33.651Z,7.30
2022-11-29T17:37:54.826Z,6.57
2022-11-29T17:40:33.864Z,7.03
2022-11-29T17:43:07.932Z,6.80
2022-11-29T17:45:42.508Z,7.20
2022-11-29T17:48:16.015Z,6.30
2022-11-29T17:51:00.502Z,7.77
2022-11-29T17:53:34.403Z,6.90
2022-11-29T17:56:10.043Z,7.60
2022-11-29T17:58:43.898Z,7.33
2022-11-29T18:01:24.499Z,7.85
2022-11-29T18:03:59.990Z,7.20
2022-11-29T18:06:37.737Z,7.60
2022-11-29T18:09:13.960Z,7.20
2022-11-29T18:11:50.287Z,8.50
2022-11-29T18:14:28.577Z,9.03
2022-11-29T18:17:11.585Z,8.30
2022-11-29T18:19:45.151Z,6.87
2022-11-29T18:22:19.972Z,8.57
2022-11-29T18:25:01.130Z,7.10
2022-11-29T18:27:49.514Z,8.30
2022-11-29T18:30:38.372Z,8.10
2022-11-29T18:33:17.385Z,8.23
2022-11-29T18:35:54.504Z,7.60
2022-11-29T18:38:27.424Z,7.50
2022-11-29T18:41:00.948Z,7.10
2022-11-29T18:43:40.322Z,7.00
2022-11-29T18:46:16.780Z,6.53
2022-11-29T18:49:04.662Z,7.00
2022-11-29T18:51:52.507Z,7.17
2022-11-29T18:54:25.857Z,7.00
2022-11-29T18:56:59.638Z,6.87
2022-11-29T18:59:32.679Z,6.40
2022-11-29T19:02:15.327Z,6.50
2022-11-29T19:04:55.832Z,6.43
2022-11-29T19:07:29.908Z,6.30
2022-11-29T19:10:02.901Z,6.73
2022-11-29T19:12:35.911Z,6.30
2022-11-29T19:15:10.601Z,6.10
2022-11-29T19:17:53.609Z,6.10
2022-11-29T19:20:53.649Z,6.20
2022-11-29T19:23:33.995Z,6.43
2022-11-29T19:26:27.881Z,6.60
2022-11-29T19:29:18.354Z,5.83
2022-11-29T19:32:15.130Z,6.03
2022-11-29T19:35:24.408Z,5.67
2022-11-29T19:38:04.485Z,5.67
2022-11-29T19:41:01.410Z,6.23
2022-11-29T19:43:48.546Z,6.73
2022-11-29T19:46:37.638Z,6.67
2022-11-29T19:49:11.824Z,5.93
2022-11-29T19:51:45.209Z,6.13
2022-11-29T19:54:25.296Z,5.83
2022-11-29T19:56:59.087Z,5.80
2022-11-29T19:59:34.197Z,5.73
2022-11-29T20:02:07.658Z,5.47
2022-11-29T20:04:42.244Z,5.70
2022-11-29T20:07:15.479Z,5.53
2022-11-29T20:09:49.095Z,5.70
2022-11-29T20:12:33.480Z,5.67
2022-11-29T20:15:08.263Z,5.60
2022-11-29T20:17:42.904Z,5.93
2022-11-29T20:20:18.501Z,5.67
2022-11-29T20:22:53.817Z,6.03
2022-11-29T20:25:27.495Z,5.37
2022-11-29T20:28:18.514Z,6.27
2022-11-29T20:30:54.584Z,5.23
2022-11-29T20:33:28.827Z,5.63
2022-11-29T20:36:18.250Z,5.77
2022-11-29T20:39:01.805Z,5.10
2022-11-29T20:41:42.744Z,5.60
2022-11-29T20:44:19.628Z,5.50
2022-11-29T20:46:54.987Z,5.33
2022-11-29T20:49:29.192Z,5.30
2022-11-29T20:52:07.322Z,5.63
2022-11-29T20:54:40.631Z,5.60
2022-11-29T20:57:14.001Z,5.10
2022-11-29T20:59:47.238Z,5.53
2022-11-29T21:02:21.319Z,5.83
2022-11-29T21:04:54.322Z,5.43
2022-11-29T21:07:27.424Z,5.20
2022-11-29T21:10:01.591Z,5.17
2022-11-29T21:12:38.888Z,5.13
2022-11-29T21:15:15.553Z,5.77
2022-11-29T21:17:49.200Z,5.33
2022-11-29T21:20:26.551Z,6.00
2022-11-29T21:23:06.711Z,5.40
2022-11-29T21:25:49.316Z,5.77
2022-11-29T21:28:26.298Z,6.08
2022-11-29T21:30:59.974Z,5.83
2022-11-29T21:33:33.950Z,5.70
2022-11-29T21:36:07.600Z,6.17
2022-11-29T21:38:40.950Z,5.40
2022-11-29T21:41:13.935Z,5.27
2022-11-29T21:46:39.933Z,6.00
2022-11-29T21:49:12.939Z,5.93
2022-11-29T21:51:48.866Z,6.73
2022-11-29T21:54:22.135Z,5.97
2022-11-29T21:56:55.121Z,6.23
2022-11-29T21:59:28.195Z,6.07
2022-11-29T22:02:01.313Z,6.47
2022-11-29T22:04:34.282Z,6.40
2022-11-29T22:07:07.341Z,6.60
2022-11-29T22:09:40.253Z,6.80
2022-11-29T22:12:32.946Z,6.33
2022-11-29T22:15:07.339Z,6.73
2022-11-29T22:17:40.338Z,7.23
2022-11-29T22:20:14.446Z,7.20
2022-11-29T22:22:48.748Z,7.30
2022-11-29T22:25:21.634Z,7.00
2022-11-29T22:27:55.377Z,6.27
2022-11-29T22:30:28.571Z,6.75
2022-11-29T22:33:01.572Z,7.10
2022-11-29T22:35:34.431Z,7.33
2022-11-29T22:38:07.250Z,6.80
2022-11-29T22:40:40.883Z,6.80
2022-11-29T22:43:13.903Z,7.27
2022-11-29T22:45:48.857Z,6.60
2022-11-29T22:48:26.326Z,7.60
2022-11-29T22:51:07.672Z,7.03
2022-11-29T22:53:43.488Z,6.50
2022-11-29T22:56:19.864Z,8.00
2022-11-29T22:59:03.973Z,7.97
2022-11-29T23:01:41.207Z,7.43
2022-11-29T23:04:15.969Z,7.33
2022-11-29T23:06:49.239Z,7.90
2022-11-29T23:09:23.667Z,7.77
2022-11-29T23:11:58.105Z,7.53
2022-11-29T23:14:30.830Z,7.60
2022-11-29T23:17:03.773Z,8.07
2022-11-29T23:19:37.009Z,7.50
2022-11-29T23:22:10.189Z,6.87
2022-11-29T23:24:43.875Z,8.20
2022-11-29T23:27:17.260Z,8.40
2022-11-29T23:29:50.288Z,7.70
2022-11-29T23:32:23.184Z,7.73
2022-11-29T23:34:57.163Z,7.83
2022-11-29T23:37:30.173Z,7.13
2022-11-29T23:40:03.139Z,8.63
2022-11-29T23:42:36.016Z,8.23
2022-11-29T23:45:10.105Z,7.97
2022-11-29T23:47:43.149Z,8.30
2022-11-29T23:50:16.271Z,8.63
2022-11-29T23:52:55.223Z,9.07
2022-11-29T23:55:28.604Z,8.10
2022-11-29T23:58:03.557Z,9.60
